x

Nantucket Sound (44020) Wave Buoy

12:50pm - Wed 6th May 2015 All times are EDT. -4 hours from GMT.

  • Sig Wave height 0.7ft
  • Average Period 3s
  • Wind
    7mph
  • Sea Temp 51°f
  • Air Temp 52°f
  • Sea Pressure 1025.3mb
  • Nantucket Sound
  • Nantucket Sound

More Historic Weather Station data

Upgrade to MSW Pro to gain access to the past 30 days of data for over 8000 Wavebouys and Weather Stations around the globe.

Join Pro

Comparision Forecast

View Surf forecast
   
Wed 05/06 12:50pm 0.7ft  -  3s 7
mph
1025.3mb 51f 52f
11:50am 0.7ft  -  3s 4 7 mph 1025.8mb 50f 52f
10:50am 0.7ft  -  3s 9 11 mph 1026mb 50f 53f
9:50am 0.7ft  -  3s 11 13 mph 1025.6mb 49f 52f
8:50am 0.7ft  -  3s 13 16 mph 1025.3mb 49f 52f
7:50am 0.7ft  -  3s 11 13 mph 1025mb 49f 51f
6:50am 0.7ft  -  5s 13 16 mph 1024.4mb 49f 50f
5:50am 0.3ft  -  5s 11 13 mph 1023.5mb 49f 50f
4:50am 0.3ft  -  5s 7 9 mph 1022.9mb 49f 50f
3:50am 0.7ft  -  4s 7
mph
1022.8mb 49f 50f
2:50am 0.7ft  -  4s 7
mph
1022.5mb 50f 51f
1:50am 1ft 10s 4s 2 4 mph 1022.9mb 50f 52f
12:50am 1ft 5s 5s  -  mph 1023.3mb 51f 51f
Tue 05/05 11:50pm 0.7ft  -  4s 2 4 mph 1023.6mb 51f 52f
10:50pm 0.7ft  -  3s 2 4 mph 1023.1mb 50f 53f
9:50pm 0.7ft  -  4s 4 7 mph 1023.4mb 50f 53f
8:50pm 0.7ft  -  3s 7
mph
1022.6mb 50f 54f
7:50pm 0.7ft  -  4s 11 13 mph 1021.6mb 49f 55f
6:50pm 0.7ft  -  4s 11 13 mph 1021.3mb 49f 55f
5:50pm 0.7ft  -  5s 7
mph
1021.6mb 49f 53f
4:50pm 0.7ft  -  4s 7
mph
1021.9mb 49f 54f
3:50pm 0.7ft  -  4s 4 7 mph 1022.3mb 50f 55f
2:50pm 1ft 5s 4s  -  2 mph 1022.7mb 50f 53f
1:50pm 1ft 5s 4s 4
mph
1023.1mb 51f 52f
12:50pm 1ft 4s 4s 9
mph
1023mb 50f 52f
11:50am 1ft 3s 3s 11
mph
1022.9mb 50f 52f
10:50am 1ft 3s 3s 11 13 mph 1022.7mb 50f 52f
9:50am 1.3ft 3s 3s 13 16 mph 1022.4mb 50f 52f
8:50am 1.3ft 3s 3s 20 22 mph 1022mb 49f 52f
7:50am 2ft 3s 3s 16 18 mph 1022.1mb 49f 53f
6:50am 2ft 4s 3s 18 22 mph 1021.5mb 48f 53f
5:50am 1.6ft 4s 4s 16 18 mph 1021.3mb 48f 53f
4:50am 2ft 4s 4s 16 20 mph 1021.4mb 48f 53f
3:50am 2.5ft 4s 4s 20 22 mph 1021.1mb 49f 54f
2:50am 2ft 3s 4s 18 20 mph 1021.1mb 49f 54f
1:50am 2.5ft 4s 4s 18 20 mph 1021.2mb 50f 54f
12:50am 2.5ft 4s 4s 20 25 mph 1021.2mb 50f 56f
Mon 05/04 11:50pm 2.5ft 3s 3s 22 27 mph 1021.1mb 50f 55f
10:50pm 2ft 3s 3s 22 27 mph 1021.5mb 50f 55f
9:50pm 2ft 3s 3s 22 25 mph 1021.8mb 49f 55f
8:50pm 2ft 3s 3s 20 22 mph 1021.9mb 49f 54f
7:50pm 1.6ft 3s 3s 20 25 mph 1021.4mb 49f 54f
6:50pm 1.6ft 3s 3s 18 22 mph 1021.5mb 49f 54f
5:50pm 1.6ft 3s 3s 16 18 mph 1022mb 48f 53f
4:50pm 1.6ft 3s 3s 18 20 mph 1022.1mb 48f 54f
3:50pm 1.6ft 3s 3s 16
mph
1022.5mb 49f 53f
2:50pm 1.6ft 3s 3s 13 16 mph 1022.7mb 49f 54f
1:50pm 1.6ft 3s 3s 16 18 mph 1023.1mb 49f 54f
12:50pm 1.6ft 3s 4s 16 18 mph 1023.4mb 49f 53f
11:50am 1ft 7s 3s 13 16 mph 1024.2mb 49f 53f
10:50am 1ft 3s 3s 9 11 mph 1024.4mb 49f 52f
9:50am 1ft 3s 3s 13 16 mph 1023.9mb 49f 53f
8:50am 1ft 2s 3s 16 18 mph 1023.9mb 48f 52f
7:50am 1ft 3s 3s 13 16 mph 1024.1mb 47f 51f
6:50am 1ft 2s 3s 13 16 mph 1023.8mb 47f 52f
5:50am 1ft 2s 3s 13 16 mph 1023.3mb 47f 51f
4:50am 1ft 11s 4s 11 13 mph 1022.9mb 47f 51f
3:50am 1ft 7s 4s 13
mph
1022.8mb 47f 51f
2:50am 1.3ft 3s 3s 13 16 mph 1022.5mb 48f 51f
1:50am 1.3ft 3s 4s 13 16 mph 1022.4mb 48f 51f
12:50am 1.6ft 8s 4s 13 16 mph 1022.3mb 49f 51f
Sun 05/03 11:50pm 1.3ft 8s 4s 16 18 mph 1021.9mb 49f 51f
10:50pm 1ft 8s 3s 13 16 mph 1022mb 49f 51f
9:50pm 1ft 3s  -  11 13 mph 1022.3mb 49f 50f
8:50pm 1ft 3s 3s 11 13 mph 1021.8mb 48f 49f
7:50pm 1ft 2s 3s 13
mph
1021.3mb 48f 49f
6:50pm 1.3ft 3s 3s 11 13 mph 1021mb 47f 49f
5:50pm 1.3ft 3s 3s 13
mph
1020.6mb 47f 49f
4:50pm 1.3ft 3s 3s 13 16 mph 1020.3mb 47f 49f
3:50pm 1.3ft 3s 3s 13 16 mph 1020.4mb 48f 49f
2:50pm 1.3ft 6s 4s 13 16 mph 1020.5mb 47f 49f
1:50pm 1.6ft 3s 4s 13 16 mph 1020.3mb 48f 49f
12:50pm 1.6ft 3s 4s 13 16 mph 1020.1mb 49f 49f
11:50am 1.3ft 7s 4s 11 13 mph 1020mb 49f 48f
10:50am 1ft 7s 4s 13
mph
1019.8mb 48f 48f
9:50am 0.7ft  -  4s 13 16 mph 1019.3mb 48f 48f
8:50am 0.7ft  -  5s 11
mph
1019.5mb 47f 47f
7:50am 0.7ft  -  5s 7 9 mph 1019.2mb 47f 47f
6:50am 1ft 5s 5s 4 7 mph 1018.8mb 46f 48f
5:50am 1ft 6s 5s 4
mph
1018.2mb 46f 46f
4:50am 1ft 6s 5s 2
mph
1017.8mb 46f 46f
3:50am 1ft 5s 5s 4
mph
1017.5mb 46f 45f
2:50am 1.3ft 7s 5s 4 7 mph 1017.5mb 47f 45f
1:50am 1.3ft 6s 4s 4 7 mph 1017.4mb 47f 45f
12:50am 1.6ft 4s 4s 4 7 mph 1017.2mb 47f 44f
Sat 05/02 11:50pm 1.6ft 6s 5s  -  2 mph 1017.1mb 48f 43f
10:50pm 1.3ft 6s 5s 2
mph
1017mb 48f 43f
9:50pm 1ft 5s 4s  -  2 mph 1016.8mb 48f 43f
8:50pm 1ft 4s 4s 2 4 mph 1016.6mb 48f 42f
7:50pm 1ft 3s 4s 9 11 mph 1015.9mb 47f 40f
6:50pm 1.3ft 3s 4s 11 13 mph 1015.9mb 47f 41f